createdAt,value
2022-12-14T00:02:45.798Z,20.77
2022-12-14T00:05:32.909Z,19.27
2022-12-14T00:08:19.884Z,20.87
2022-12-14T00:11:07.164Z,21.10
2022-12-14T00:13:59.525Z,20.17
2022-12-14T00:16:46.525Z,21.03
2022-12-14T00:19:33.474Z,19.80
2022-12-14T00:22:20.491Z,19.83
2022-12-14T00:25:07.768Z,20.63
2022-12-14T00:27:54.757Z,19.87
2022-12-14T00:30:41.812Z,19.27
2022-12-14T00:33:28.860Z,20.00
2022-12-14T00:36:16.315Z,19.70
2022-12-14T00:39:03.962Z,20.67
2022-12-14T00:41:50.942Z,19.10
2022-12-14T00:44:37.848Z,19.97
2022-12-14T00:47:25.038Z,18.47
2022-12-14T00:50:11.964Z,18.57
2022-12-14T00:52:58.925Z,18.33
2022-12-14T00:55:49.031Z,18.47
2022-12-14T00:58:36.586Z,18.80
2022-12-14T01:01:23.609Z,17.57
2022-12-14T01:04:21.709Z,18.30
2022-12-14T01:07:08.744Z,17.23
2022-12-14T01:09:55.721Z,16.70
2022-12-14T01:12:42.906Z,18.13
2022-12-14T01:15:29.911Z,18.87
2022-12-14T01:18:17.201Z,17.87
2022-12-14T01:21:19.780Z,17.47
2022-12-14T01:24:07.138Z,19.70
2022-12-14T01:26:54.162Z,18.33
2022-12-14T01:29:41.544Z,17.37
2022-12-14T01:32:28.616Z,17.43
2022-12-14T01:35:15.700Z,18.43
2022-12-14T01:38:02.648Z,17.83
2022-12-14T01:40:49.657Z,17.97
2022-12-14T01:44:16.309Z,18.00
2022-12-14T01:47:12.435Z,18.87
2022-12-14T01:50:19.926Z,18.30
2022-12-14T01:53:12.073Z,17.77
2022-12-14T01:55:59.123Z,18.63
2022-12-14T01:58:46.095Z,18.70
2022-12-14T02:01:33.705Z,18.77
2022-12-14T02:04:21.236Z,18.00
2022-12-14T02:07:09.234Z,16.90
2022-12-14T02:09:58.588Z,18.40
2022-12-14T02:12:53.132Z,17.30
2022-12-14T02:15:41.476Z,19.50
2022-12-14T02:18:31.359Z,18.23
2022-12-14T02:22:01.468Z,17.37
2022-12-14T02:25:16.375Z,17.40
2022-12-14T02:28:15.344Z,16.43
2022-12-14T02:31:16.474Z,18.93
2022-12-14T02:34:26.223Z,17.53
2022-12-14T02:37:32.313Z,17.10
2022-12-14T02:40:36.618Z,16.90
2022-12-14T02:43:41.485Z,17.00
2022-12-14T02:46:53.803Z,17.00
2022-12-14T02:49:56.980Z,18.50
2022-12-14T02:53:02.177Z,17.43
2022-12-14T02:55:52.015Z,15.80
2022-12-14T02:58:50.607Z,16.73
2022-12-14T03:01:40.093Z,16.03
2022-12-14T03:04:27.116Z,16.67
2022-12-14T03:07:34.136Z,17.07
2022-12-14T03:10:36.567Z,17.50
2022-12-14T03:13:49.197Z,16.63
2022-12-14T03:16:50.868Z,16.30
2022-12-14T03:19:42.684Z,15.73
2022-12-14T03:22:55.856Z,16.07
2022-12-14T03:25:47.711Z,17.10
2022-12-14T03:28:44.794Z,15.87
2022-12-14T03:31:49.158Z,16.37
2022-12-14T03:34:42.106Z,16.73
2022-12-14T03:37:41.790Z,16.50
2022-12-14T03:40:39.146Z,15.40
2022-12-14T03:43:34.954Z,18.07
2022-12-14T03:46:32.216Z,15.93
2022-12-14T03:49:39.854Z,16.63
2022-12-14T03:52:35.256Z,16.63
2022-12-14T03:55:42.738Z,16.83
2022-12-14T03:58:42.541Z,15.47
2022-12-14T04:01:54.892Z,16.87
2022-12-14T04:04:48.487Z,16.90
2022-12-14T04:07:44.757Z,17.37
2022-12-14T04:11:06.184Z,16.40
2022-12-14T04:14:34.325Z,16.83
2022-12-14T04:17:47.761Z,15.73
2022-12-14T04:21:20.182Z,15.43
2022-12-14T04:24:40.181Z,15.87
2022-12-14T04:27:45.881Z,15.07
2022-12-14T04:30:38.944Z,15.63
2022-12-14T04:33:45.424Z,16.60
2022-12-14T04:36:56.670Z,14.73
2022-12-14T04:40:09.836Z,15.47
2022-12-14T04:43:01.669Z,14.13
2022-12-14T04:46:12.705Z,15.80
2022-12-14T04:49:08.882Z,16.50
2022-12-14T04:52:05.597Z,15.33
2022-12-14T04:55:07.470Z,15.40
2022-12-14T04:58:02.674Z,14.67
2022-12-14T05:01:10.648Z,14.90
2022-12-14T05:04:04.516Z,14.30
2022-12-14T05:07:14.536Z,15.10
2022-12-14T05:10:16.567Z,14.50
2022-12-14T05:13:21.479Z,15.63
2022-12-14T05:16:08.820Z,14.80
2022-12-14T05:18:55.820Z,13.17
2022-12-14T05:21:48.683Z,14.80
2022-12-14T05:24:35.764Z,15.57
2022-12-14T05:27:22.676Z,14.93
2022-12-14T05:30:10.351Z,15.50
2022-12-14T05:32:57.664Z,15.00
2022-12-14T05:35:44.722Z,17.23
2022-12-14T05:38:31.669Z,15.77
2022-12-14T05:41:18.648Z,15.70
2022-12-14T05:44:05.614Z,14.77
2022-12-14T05:46:52.637Z,15.30
2022-12-14T05:49:39.826Z,16.60
2022-12-14T05:52:27.143Z,16.67
2022-12-14T05:55:14.136Z,14.13
2022-12-14T05:58:01.484Z,14.80
2022-12-14T06:00:48.409Z,16.77
2022-12-14T06:03:35.442Z,14.37
2022-12-14T06:06:22.424Z,13.77
2022-12-14T06:09:13.584Z,15.77
2022-12-14T06:12:00.634Z,15.13
2022-12-14T06:14:47.687Z,14.93
2022-12-14T06:17:34.593Z,15.30
2022-12-14T06:20:21.566Z,15.13
2022-12-14T06:23:08.491Z,15.37
2022-12-14T06:25:56.281Z,15.90
2022-12-14T06:28:43.928Z,16.00
2022-12-14T06:31:32.775Z,17.43
2022-12-14T06:34:24.842Z,15.27
2022-12-14T06:37:15.126Z,15.63
2022-12-14T06:40:02.118Z,15.23
2022-12-14T06:42:49.156Z,14.50
2022-12-14T06:45:36.217Z,14.40
2022-12-14T06:48:23.221Z,15.23
2022-12-14T06:51:10.409Z,16.97
2022-12-14T06:53:58.556Z,16.13
2022-12-14T06:56:47.330Z,16.10
2022-12-14T06:59:34.238Z,15.87
2022-12-14T07:02:21.503Z,16.43
2022-12-14T07:05:08.794Z,16.67
2022-12-14T07:07:55.780Z,14.57
2022-12-14T07:10:42.790Z,15.83
2022-12-14T07:13:30.090Z,15.60
2022-12-14T07:16:22.560Z,16.33
2022-12-14T07:19:11.342Z,15.23
2022-12-14T07:22:04.044Z,16.10
2022-12-14T07:24:50.971Z,17.07
2022-12-14T07:27:37.887Z,16.83
2022-12-14T07:30:24.769Z,17.43
2022-12-14T07:33:11.704Z,16.67
2022-12-14T07:36:07.464Z,16.97
2022-12-14T07:38:58.048Z,15.73
2022-12-14T07:41:47.206Z,16.57
2022-12-14T07:44:35.902Z,18.57
2022-12-14T07:47:22.933Z,17.00
2022-12-14T07:50:12.105Z,18.33
2022-12-14T07:53:00.322Z,16.03
2022-12-14T07:55:47.534Z,17.50
2022-12-14T07:58:35.331Z,17.43
2022-12-14T08:01:31.281Z,16.83
2022-12-14T08:04:19.895Z,18.50
2022-12-14T08:07:06.921Z,17.20
2022-12-14T08:09:53.994Z,18.10
2022-12-14T08:12:41.764Z,16.87
2022-12-14T08:15:28.970Z,16.23
2022-12-14T08:18:15.993Z,17.13
2022-12-14T08:21:04.874Z,16.63
2022-12-14T08:23:53.335Z,16.93
2022-12-14T08:26:40.458Z,17.80
2022-12-14T08:29:27.419Z,17.30
2022-12-14T08:32:14.431Z,18.40
2022-12-14T08:35:01.396Z,18.53
2022-12-14T08:37:48.452Z,17.37
2022-12-14T08:40:36.156Z,18.40
2022-12-14T08:43:25.481Z,17.70
2022-12-14T08:46:12.586Z,16.60
2022-12-14T08:49:00.132Z,17.73
2022-12-14T08:51:51.172Z,18.03
2022-12-14T08:54:38.314Z,18.20
2022-12-14T08:57:25.464Z,16.40
2022-12-14T09:00:13.288Z,16.47
2022-12-14T09:03:00.390Z,17.27
2022-12-14T09:05:47.562Z,17.17
2022-12-14T09:08:35.657Z,17.23
2022-12-14T09:11:23.135Z,16.80
2022-12-14T09:14:10.854Z,16.37
2022-12-14T09:16:58.356Z,18.57
2022-12-14T09:19:45.329Z,16.97
2022-12-14T09:22:32.599Z,17.13
2022-12-14T09:25:20.223Z,16.63
2022-12-14T09:28:07.422Z,16.20
2022-12-14T09:30:59.664Z,17.57
2022-12-14T09:33:48.460Z,16.83
2022-12-14T09:36:36.208Z,16.40
2022-12-14T09:39:25.653Z,16.87
2022-12-14T09:42:50.823Z,16.87
2022-12-14T09:45:50.837Z,17.20
2022-12-14T09:48:38.768Z,17.27
2022-12-14T09:51:49.632Z,17.60
2022-12-14T09:54:40.733Z,16.67
2022-12-14T09:57:37.231Z,17.27
2022-12-14T10:00:26.628Z,17.70
2022-12-14T10:03:42.362Z,16.83
2022-12-14T10:06:34.219Z,17.07
2022-12-14T10:09:36.487Z,16.77
2022-12-14T10:12:53.102Z,16.47
2022-12-14T10:16:20.293Z,16.90
2022-12-14T10:19:26.141Z,16.27
2022-12-14T10:22:25.439Z,15.80
2022-12-14T10:25:25.858Z,14.13
2022-12-14T10:28:38.070Z,15.33
2022-12-14T10:32:03.405Z,14.70
2022-12-14T10:34:53.141Z,14.00
2022-12-14T10:37:48.755Z,13.93
2022-12-14T10:40:39.055Z,13.73
2022-12-14T10:43:43.922Z,15.27
2022-12-14T10:46:47.489Z,14.23
2022-12-14T10:49:44.762Z,14.17
2022-12-14T10:52:38.698Z,14.10
2022-12-14T10:55:33.725Z,13.63
2022-12-14T10:58:20.749Z,14.43
2022-12-14T11:01:20.003Z,12.23
2022-12-14T11:04:29.771Z,13.20
2022-12-14T11:07:19.960Z,12.57
2022-12-14T11:10:23.271Z,13.10
2022-12-14T11:13:13.170Z,12.27
2022-12-14T11:16:18.211Z,12.00
2022-12-14T11:19:21.205Z,12.10
2022-12-14T11:22:21.770Z,12.90
2022-12-14T11:25:41.061Z,11.73
2022-12-14T11:28:41.322Z,12.40
2022-12-14T11:31:34.792Z,11.10
2022-12-14T11:34:30.705Z,12.00
2022-12-14T11:37:27.622Z,11.10
2022-12-14T11:40:25.477Z,11.43
2022-12-14T11:43:27.382Z,9.67
2022-12-14T11:46:16.246Z,11.13
2022-12-14T11:49:03.443Z,10.27
2022-12-14T11:52:06.095Z,10.30
2022-12-14T11:54:54.399Z,13.93
2022-12-14T11:57:50.244Z,11.93
2022-12-14T12:00:49.824Z,11.50
2022-12-14T12:03:58.916Z,11.70
2022-12-14T12:06:46.405Z,11.43
2022-12-14T12:09:41.252Z,10.57
2022-12-14T12:12:28.429Z,11.17
2022-12-14T12:15:24.304Z,10.73
2022-12-14T12:18:20.261Z,10.63
2022-12-14T12:21:29.076Z,10.47
2022-12-14T12:24:29.589Z,10.77
2022-12-14T12:27:18.387Z,10.87
2022-12-14T12:30:13.918Z,10.20
2022-12-14T12:33:27.867Z,9.87
2022-12-14T12:36:23.455Z,9.50
2022-12-14T12:39:16.258Z,10.27
2022-12-14T12:42:24.893Z,10.57
2022-12-14T12:45:27.498Z,9.63
2022-12-14T12:48:14.369Z,10.70
2022-12-14T12:51:06.085Z,10.40
2022-12-14T12:54:00.170Z,10.20
2022-12-14T12:56:51.061Z,12.53
2022-12-14T12:59:47.060Z,11.80
2022-12-14T13:02:45.585Z,11.47
2022-12-14T13:05:49.015Z,11.90
2022-12-14T13:08:40.245Z,10.97
2022-12-14T13:11:39.761Z,9.93
2022-12-14T13:14:42.446Z,11.40
2022-12-14T13:17:47.162Z,9.70
2022-12-14T13:20:36.449Z,10.40
2022-12-14T13:23:45.199Z,10.03
2022-12-14T13:26:57.739Z,10.30
2022-12-14T13:30:10.011Z,12.73
2022-12-14T13:33:16.271Z,11.83
2022-12-14T13:36:30.803Z,11.07
2022-12-14T13:39:39.412Z,12.67
2022-12-14T13:42:52.226Z,14.20
2022-12-14T13:45:43.204Z,14.67
2022-12-14T13:48:40.089Z,14.47
2022-12-14T13:51:29.872Z,14.47
2022-12-14T13:54:27.924Z,13.73
2022-12-14T13:57:23.345Z,14.47
2022-12-14T14:00:45.692Z,16.20
2022-12-14T14:03:36.035Z,15.57
2022-12-14T14:06:36.034Z,15.20
2022-12-14T14:09:26.178Z,14.73
2022-12-14T14:12:32.010Z,15.70
2022-12-14T14:15:33.068Z,15.07
2022-12-14T14:18:25.620Z,14.93
2022-12-14T14:21:12.481Z,14.43
2022-12-14T14:24:06.626Z,13.77
2022-12-14T14:27:22.458Z,13.80
2022-12-14T14:30:33.952Z,14.50
2022-12-14T14:33:50.093Z,13.93
2022-12-14T14:36:37.681Z,14.40
2022-12-14T14:39:58.928Z,14.43
2022-12-14T14:42:50.181Z,14.80
2022-12-14T14:45:48.146Z,14.47
2022-12-14T14:48:37.003Z,14.73
2022-12-14T14:51:26.871Z,15.17
2022-12-14T14:54:44.859Z,15.43
2022-12-14T14:58:16.203Z,16.27
2022-12-14T15:01:29.193Z,14.97
2022-12-14T15:04:42.602Z,14.70
2022-12-14T15:07:31.171Z,15.90
2022-12-14T15:10:38.629Z,15.93
2022-12-14T15:13:31.696Z,14.00
2022-12-14T15:16:43.286Z,16.20
2022-12-14T15:19:36.477Z,15.57
2022-12-14T15:22:41.537Z,14.70
2022-12-14T15:25:30.312Z,14.63
2022-12-14T15:28:22.885Z,15.40
2022-12-14T15:31:10.036Z,15.60
2022-12-14T15:33:58.579Z,15.73
2022-12-14T15:36:48.454Z,16.00
2022-12-14T15:39:43.699Z,14.93
2022-12-14T15:42:30.692Z,17.27
2022-12-14T15:45:21.233Z,16.30
2022-12-14T15:48:26.996Z,15.17
2022-12-14T15:51:18.312Z,15.50
2022-12-14T15:54:07.778Z,16.30
2022-12-14T15:56:57.508Z,16.83
2022-12-14T15:59:45.763Z,16.83
2022-12-14T16:02:42.070Z,16.50
2022-12-14T16:05:30.332Z,16.67
2022-12-14T16:08:17.483Z,16.17
2022-12-14T16:11:11.693Z,16.23
2022-12-14T16:14:01.475Z,15.83
2022-12-14T16:16:48.988Z,16.10
2022-12-14T16:19:57.586Z,15.37
2022-12-14T16:23:01.949Z,15.47
2022-12-14T16:26:14.997Z,17.17
2022-12-14T16:29:09.856Z,16.40
2022-12-14T16:32:02.537Z,19.80
2022-12-14T16:34:59.568Z,18.57
2022-12-14T16:37:54.394Z,16.43
2022-12-14T16:40:59.536Z,18.97
2022-12-14T16:43:56.229Z,16.93
2022-12-14T16:47:03.090Z,16.90
2022-12-14T16:49:50.915Z,16.83
2022-12-14T16:52:38.322Z,18.10
2022-12-14T16:55:26.830Z,17.17
2022-12-14T16:58:17.792Z,16.33
2022-12-14T17:01:07.982Z,18.57
2022-12-14T17:04:04.045Z,16.37
2022-12-14T17:06:53.417Z,18.43
2022-12-14T17:09:40.444Z,19.70
2022-12-14T17:12:27.614Z,18.87
2022-12-14T17:15:27.752Z,18.63
2022-12-14T17:18:14.766Z,17.27
2022-12-14T17:21:02.818Z,17.87
2022-12-14T17:23:49.789Z,18.83
2022-12-14T17:26:36.746Z,18.10
2022-12-14T17:29:26.419Z,17.37
2022-12-14T17:32:15.999Z,19.53
2022-12-14T17:35:03.909Z,19.60
2022-12-14T17:37:51.918Z,20.13
2022-12-14T17:40:39.137Z,21.17
2022-12-14T17:43:28.222Z,21.00
2022-12-14T17:46:16.124Z,21.27
2022-12-14T17:49:06.768Z,20.20
2022-12-14T17:51:54.275Z,20.57
2022-12-14T17:54:42.567Z,21.07
2022-12-14T17:57:32.488Z,20.80
2022-12-14T18:00:44.775Z,20.70
2022-12-14T18:03:36.616Z,23.60
2022-12-14T18:06:25.098Z,23.43
2022-12-14T18:09:12.890Z,23.70
2022-12-14T18:12:22.510Z,23.80
2022-12-14T18:15:27.145Z,25.03
2022-12-14T18:18:16.286Z,28.40
2022-12-14T18:21:05.056Z,26.63
2022-12-14T18:23:54.433Z,22.90
2022-12-14T18:26:43.656Z,24.47
2022-12-14T18:29:38.946Z,27.13
2022-12-14T18:32:27.350Z,25.97
2022-12-14T18:35:20.684Z,27.77
2022-12-14T18:38:09.702Z,26.77
2022-12-14T18:40:59.487Z,26.20
2022-12-14T18:43:59.532Z,25.23
2022-12-14T18:46:49.655Z,25.90
2022-12-14T18:49:38.343Z,24.67
2022-12-14T18:52:26.645Z,24.67
2022-12-14T18:55:23.816Z,24.37
2022-12-14T18:58:18.319Z,25.93
2022-12-14T19:01:10.177Z,25.60
2022-12-14T19:04:02.796Z,24.40
2022-12-14T19:06:53.759Z,25.53
2022-12-14T19:09:43.864Z,24.97
2022-12-14T19:12:34.087Z,24.77
2022-12-14T19:15:38.712Z,23.90
2022-12-14T19:18:30.745Z,25.00
2022-12-14T19:24:34.793Z,25.50
2022-12-14T19:27:43.945Z,27.03
2022-12-14T19:30:30.362Z,26.60
2022-12-14T19:33:17.369Z,26.03
2022-12-14T19:36:08.715Z,27.03
2022-12-14T19:38:55.788Z,25.53
2022-12-14T19:41:42.911Z,26.57
2022-12-14T19:44:36.044Z,26.73
2022-12-14T19:47:22.997Z,26.97
2022-12-14T19:50:13.777Z,26.30
2022-12-14T19:53:00.780Z,27.53
2022-12-14T19:55:53.880Z,25.53
2022-12-14T19:58:40.988Z,26.20
2022-12-14T20:01:32.923Z,28.37
2022-12-14T20:04:20.495Z,25.67
2022-12-14T20:07:08.651Z,28.47
2022-12-14T20:09:55.658Z,28.97
2022-12-14T20:12:42.855Z,29.07
2022-12-14T20:15:29.950Z,27.90
2022-12-14T20:18:17.128Z,27.57
2022-12-14T20:21:06.792Z,26.37
2022-12-14T20:23:53.813Z,27.17
2022-12-14T20:26:41.149Z,31.50
2022-12-14T20:29:28.623Z,29.20
2022-12-14T20:32:16.254Z,28.03
2022-12-14T20:35:05.603Z,28.37
2022-12-14T20:37:54.162Z,26.87
2022-12-14T20:40:43.197Z,26.37
2022-12-14T20:43:35.044Z,26.80
2022-12-14T20:46:26.788Z,25.40
2022-12-14T20:49:17.104Z,26.40
2022-12-14T20:52:05.668Z,26.40
2022-12-14T20:54:53.745Z,26.33
2022-12-14T20:57:40.884Z,25.83
2022-12-14T21:00:28.444Z,26.27
2022-12-14T21:03:15.926Z,26.07
2022-12-14T21:06:03.423Z,24.47
2022-12-14T21:09:05.459Z,26.33
2022-12-14T21:12:11.278Z,26.50
2022-12-14T21:14:59.571Z,26.40
2022-12-14T21:17:46.626Z,26.60
2022-12-14T21:20:33.680Z,27.47
2022-12-14T21:23:20.764Z,25.83
2022-12-14T21:26:08.163Z,27.07
2022-12-14T21:28:58.580Z,25.67
2022-12-14T21:31:46.701Z,26.47
2022-12-14T21:34:34.165Z,26.77
2022-12-14T21:37:22.114Z,25.57
2022-12-14T21:40:29.436Z,25.27
2022-12-14T21:43:16.481Z,23.57
2022-12-14T21:46:04.050Z,24.77
2022-12-14T21:48:51.118Z,24.63
2022-12-14T21:51:38.749Z,24.70
2022-12-14T21:54:25.934Z,23.77
2022-12-14T21:57:37.637Z,25.47
2022-12-14T22:00:24.692Z,24.17
2022-12-14T22:03:12.474Z,24.20
2022-12-14T22:05:59.932Z,23.47
2022-12-14T22:08:46.897Z,21.97
2022-12-14T22:11:33.989Z,21.57
2022-12-14T22:14:23.305Z,21.60
2022-12-14T22:17:11.728Z,23.10
2022-12-14T22:19:59.547Z,21.80
2022-12-14T22:22:46.589Z,23.27
2022-12-14T22:25:33.513Z,22.47
2022-12-14T22:28:21.008Z,22.73
2022-12-14T22:31:07.990Z,22.27
2022-12-14T22:33:55.208Z,21.40
2022-12-14T22:36:42.152Z,21.67
2022-12-14T22:39:29.255Z,22.40
2022-12-14T22:42:16.588Z,22.47
2022-12-14T22:45:04.060Z,20.63
2022-12-14T22:47:50.986Z,21.80
2022-12-14T22:50:37.957Z,24.07
2022-12-14T22:53:24.932Z,22.33
2022-12-14T22:56:23.970Z,21.07
2022-12-14T22:59:30.416Z,21.67
2022-12-14T23:02:17.700Z,21.20
2022-12-14T23:05:06.744Z,21.47
2022-12-14T23:07:53.663Z,21.67
2022-12-14T23:10:59.393Z,21.37
2022-12-14T23:14:04.869Z,23.57
2022-12-14T23:17:10.316Z,21.17
2022-12-14T23:20:15.853Z,23.47
2022-12-14T23:23:24.997Z,21.27
2022-12-14T23:26:30.095Z,22.47
2022-12-14T23:29:35.744Z,20.13
2022-12-14T23:32:41.592Z,22.93
2022-12-14T23:35:47.202Z,22.17
2022-12-14T23:38:52.790Z,21.17
2022-12-14T23:41:58.649Z,22.23
2022-12-14T23:45:04.291Z,22.47
2022-12-14T23:48:09.909Z,21.70
2022-12-14T23:51:15.083Z,19.93
2022-12-14T23:54:20.256Z,21.17
2022-12-14T23:57:26.275Z,22.67
